Time;durP1;ratioP1;P1;durP2;ratioP2;P2;SDS_P1;SDS_P2;PMS_P1;PMS_P2;Temp;Humidity;BMP_temperature;BMP_pressure;BME280_temperature;BME280_humidity;BME280_pressure;Samples;Min_cycle;Max_cycle;Signal;HPM_P1;HPM_P2
2022/12/15 00:40:58;;;;;;;31.80;18.05;;;;;;;;;;5078359;28;20482;-84
2022/12/15 00:43:43;;;;;;;28.35;16.83;;;;;;;;;;5059055;28;20060;-75
2022/12/15 01:22:52;;;;;;;30.55;18.00;;;;;;;;;;5668545;22;20079;-74
2022/12/15 01:25:38;;;;;;;31.48;17.73;;;;;;;;;;4989691;23;20056;-75
2022/12/15 01:28:23;;;;;;;31.50;19.13;;;;;;;;;;5033638;28;20060;-74
2022/12/15 01:31:10;;;;;;;30.60;18.45;;;;;;;;;;5035761;28;20405;-74
2022/12/15 01:33:55;;;;;;;29.38;17.38;;;;;;;;;;5023330;28;20058;-76
2022/12/15 01:36:40;;;;;;;32.25;18.65;;;;;;;;;;5030413;28;20028;-73
2022/12/15 01:40:43;;;;;;;31.60;18.40;;;;;;;;;;5033745;28;20478;-74
2022/12/15 01:42:34;;;;;;;36.25;19.45;;;;;;;;;;5026180;28;20135;-75
2022/12/15 01:45:22;;;;;;;33.10;20.48;;;;;;;;;;5037812;28;20112;-73
2022/12/15 01:48:08;;;;;;;32.10;18.27;;;;;;;;;;5045214;28;20742;-73
2022/12/15 01:50:59;;;;;;;30.50;18.33;;;;;;;;;;5032323;28;20092;-73
2022/12/15 01:53:51;;;;;;;34.22;18.52;;;;;;;;;;5020762;28;20547;-74
2022/12/15 01:56:39;;;;;;;33.78;17.80;;;;;;;;;;5014897;28;20608;-75
2022/12/15 01:59:28;;;;;;;32.35;17.30;;;;;;;;;;5034968;28;20467;-74
2022/12/15 02:02:14;;;;;;;32.15;18.50;;;;;;;;;;5027419;28;20083;-75
2022/12/15 02:04:59;;;;;;;36.97;19.80;;;;;;;;;;5030693;28;20029;-73
2022/12/15 02:07:45;;;;;;;33.10;18.88;;;;;;;;;;5031114;28;20699;-72
2022/12/15 02:10:41;;;;;;;37.03;19.05;;;;;;;;;;5030076;28;20045;-73
2022/12/15 02:13:45;;;;;;;33.63;19.63;;;;;;;;;;5031852;28;20029;-74
2022/12/15 02:16:49;;;;;;;31.70;19.10;;;;;;;;;;5035618;28;20036;-77
2022/12/15 02:19:46;;;;;;;34.17;19.63;;;;;;;;;;5042163;28;20040;-78
2022/12/15 02:22:34;;;;;;;35.67;18.05;;;;;;;;;;5019685;28;20507;-79
2022/12/15 02:25:26;;;;;;;32.95;19.40;;;;;;;;;;5033380;28;20033;-78
2022/12/15 02:28:14;;;;;;;46.42;20.75;;;;;;;;;;5044151;28;20037;-78
2022/12/15 02:34:13;;;;;;;31.17;18.90;;;;;;;;;;5032398;28;20060;-73
2022/12/15 02:37:00;;;;;;;33.78;19.33;;;;;;;;;;5033211;28;20044;-73
2022/12/15 02:39:45;;;;;;;42.53;22.58;;;;;;;;;;5031578;28;20041;-73
2022/12/15 02:42:32;;;;;;;36.60;20.33;;;;;;;;;;5016724;28;20140;-73
2022/12/15 02:45:19;;;;;;;33.25;19.52;;;;;;;;;;5016519;28;20120;-74
2022/12/15 02:48:20;;;;;;;33.35;20.25;;;;;;;;;;5032250;28;20578;-73
2022/12/15 02:51:19;;;;;;;34.72;20.55;;;;;;;;;;5033632;28;20044;-74
2022/12/15 02:54:27;;;;;;;38.10;21.63;;;;;;;;;;5028755;28;20382;-74
2022/12/15 02:57:24;;;;;;;34.05;19.15;;;;;;;;;;5030414;28;20329;-70
2022/12/15 03:00:10;;;;;;;33.75;19.88;;;;;;;;;;5025827;28;20486;-71
2022/12/15 03:02:55;;;;;;;36.92;21.60;;;;;;;;;;5036217;28;20037;-72
2022/12/15 03:05:40;;;;;;;37.33;19.33;;;;;;;;;;5018264;28;20493;-71
2022/12/15 03:08:25;;;;;;;37.38;20.67;;;;;;;;;;5027632;28;20075;-72
2022/12/15 03:11:11;;;;;;;36.20;20.05;;;;;;;;;;5027046;28;20099;-73
2022/12/15 03:13:56;;;;;;;34.85;19.83;;;;;;;;;;5032406;28;20040;-72
2022/12/15 03:16:41;;;;;;;35.75;21.42;;;;;;;;;;5029239;28;20025;-72
2022/12/15 03:19:27;;;;;;;38.97;23.10;;;;;;;;;;5032168;28;20024;-75
2022/12/15 03:22:12;;;;;;;41.20;22.13;;;;;;;;;;5032361;28;20039;-72
2022/12/15 03:24:57;;;;;;;34.83;20.58;;;;;;;;;;5030798;28;20466;-72
2022/12/15 03:27:44;;;;;;;43.05;21.55;;;;;;;;;;5032288;28;20471;-72
2022/12/15 03:30:29;;;;;;;36.25;20.35;;;;;;;;;;5033426;28;20481;-74
2022/12/15 03:33:14;;;;;;;39.92;22.08;;;;;;;;;;5032283;28;20033;-75
2022/12/15 03:36:00;;;;;;;37.47;23.38;;;;;;;;;;5036901;28;20029;-75
2022/12/15 03:38:45;;;;;;;45.90;24.52;;;;;;;;;;5031691;28;20103;-75
2022/12/15 03:41:30;;;;;;;40.22;22.75;;;;;;;;;;5028603;28;20029;-77
2022/12/15 03:44:15;;;;;;;42.67;23.13;;;;;;;;;;5031239;28;20167;-75
2022/12/15 03:47:00;;;;;;;42.45;21.77;;;;;;;;;;5028466;28;20475;-75
2022/12/15 03:49:46;;;;;;;39.05;22.90;;;;;;;;;;5028471;28;20037;-69
2022/12/15 03:52:31;;;;;;;44.22;24.27;;;;;;;;;;5032013;28;20029;-74
2022/12/15 03:55:17;;;;;;;45.05;24.13;;;;;;;;;;5029429;28;20134;-73
2022/12/15 03:58:02;;;;;;;43.95;26.17;;;;;;;;;;5030466;28;20107;-73
2022/12/15 04:00:47;;;;;;;43.17;23.05;;;;;;;;;;5030207;28;20072;-76
2022/12/15 04:03:33;;;;;;;43.20;23.30;;;;;;;;;;5014080;28;20030;-76
2022/12/15 04:06:18;;;;;;;42.50;22.67;;;;;;;;;;5023583;28;20682;-72
2022/12/15 04:09:03;;;;;;;46.55;24.50;;;;;;;;;;5019968;28;20103;-74
2022/12/15 04:11:48;;;;;;;42.58;24.10;;;;;;;;;;5030596;28;20227;-75
2022/12/15 04:14:33;;;;;;;39.53;22.55;;;;;;;;;;5027050;28;20045;-76
2022/12/15 04:17:19;;;;;;;41.08;21.85;;;;;;;;;;5029991;28;20037;-74
2022/12/15 04:20:10;;;;;;;46.38;23.83;;;;;;;;;;5017706;28;20337;-74
2022/12/15 04:22:56;;;;;;;40.10;22.52;;;;;;;;;;5029384;28;20426;-76
2022/12/15 05:33:08;;;;;;;40.28;22.42;;;;;;;;;;5026582;28;20671;-77
2022/12/15 05:35:57;;;;;;;41.83;23.02;;;;;;;;;;5031526;28;20024;-78
2022/12/15 05:38:42;;;;;;;43.60;21.45;;;;;;;;;;5027478;28;20040;-73
2022/12/15 05:41:27;;;;;;;39.72;21.88;;;;;;;;;;5034768;28;20029;-78
2022/12/15 05:44:13;;;;;;;38.22;21.63;;;;;;;;;;5034101;28;20356;-79
2022/12/15 05:46:58;;;;;;;44.63;22.65;;;;;;;;;;5020021;28;20067;-80
2022/12/15 05:49:43;;;;;;;47.03;24.42;;;;;;;;;;5031359;28;20342;-78
2022/12/15 05:52:28;;;;;;;44.58;23.27;;;;;;;;;;5027422;28;20063;-79
2022/12/15 05:55:14;;;;;;;41.20;23.83;;;;;;;;;;5033643;28;20036;-80
2022/12/15 05:57:59;;;;;;;38.97;22.08;;;;;;;;;;5026721;28;20040;-71
2022/12/15 06:00:44;;;;;;;40.35;22.95;;;;;;;;;;5029277;28;20105;-73
2022/12/15 06:03:30;;;;;;;39.65;23.90;;;;;;;;;;5015939;28;20029;-72
2022/12/15 06:06:15;;;;;;;36.30;21.00;;;;;;;;;;5025749;28;20151;-75
2022/12/15 06:09:02;;;;;;;40.60;21.88;;;;;;;;;;5028363;28;20037;-74
2022/12/15 06:11:47;;;;;;;39.90;21.58;;;;;;;;;;5014793;28;20032;-74
2022/12/15 06:14:32;;;;;;;40.10;22.05;;;;;;;;;;5035271;28;20343;-78
2022/12/15 06:17:18;;;;;;;40.05;23.45;;;;;;;;;;5030555;28;20051;-72
2022/12/15 06:20:03;;;;;;;39.88;23.02;;;;;;;;;;5027538;28;20112;-73
2022/12/15 06:22:48;;;;;;;42.55;22.85;;;;;;;;;;5027326;28;20488;-73
2022/12/15 06:25:34;;;;;;;41.97;20.67;;;;;;;;;;5028040;28;20025;-74
2022/12/15 06:28:22;;;;;;;40.17;20.55;;;;;;;;;;5030803;28;20036;-73
2022/12/15 06:31:08;;;;;;;43.15;22.98;;;;;;;;;;5025882;28;20041;-74
2022/12/15 06:33:54;;;;;;;38.75;22.50;;;;;;;;;;5028571;28;20036;-76
2022/12/15 06:36:40;;;;;;;38.95;21.20;;;;;;;;;;5031787;28;20475;-80
2022/12/15 06:39:25;;;;;;;40.13;21.95;;;;;;;;;;5026487;28;20036;-78
2022/12/15 06:42:10;;;;;;;40.70;20.95;;;;;;;;;;5029781;28;20044;-78
2022/12/15 06:44:55;;;;;;;42.03;21.27;;;;;;;;;;5032644;28;20037;-79
2022/12/15 06:47:41;;;;;;;35.20;19.75;;;;;;;;;;5038999;28;20021;-79
2022/12/15 06:50:26;;;;;;;38.15;20.83;;;;;;;;;;5026945;28;20488;-79
2022/12/15 06:53:12;;;;;;;38.70;21.67;;;;;;;;;;5029000;28;20402;-75
2022/12/15 06:55:58;;;;;;;45.28;22.98;;;;;;;;;;5031737;28;20110;-73
2022/12/15 06:58:44;;;;;;;37.42;20.88;;;;;;;;;;5021323;28;20179;-72
2022/12/15 07:01:29;;;;;;;41.00;21.33;;;;;;;;;;5015211;28;20029;-72
2022/12/15 07:04:14;;;;;;;42.50;21.48;;;;;;;;;;5026774;28;20087;-71
2022/12/15 07:06:59;;;;;;;41.47;22.15;;;;;;;;;;5031686;28;20067;-70
2022/12/15 07:09:44;;;;;;;42.35;21.65;;;;;;;;;;5028795;28;20040;-70
2022/12/15 07:12:30;;;;;;;41.80;21.58;;;;;;;;;;5031510;28;20025;-71
2022/12/15 07:15:16;;;;;;;40.10;21.15;;;;;;;;;;5032820;28;20068;-71
2022/12/15 07:18:01;;;;;;;38.63;21.48;;;;;;;;;;5034250;28;20035;-71
2022/12/15 07:20:47;;;;;;;42.45;21.33;;;;;;;;;;5040702;28;20033;-70
2022/12/15 07:23:33;;;;;;;38.50;21.80;;;;;;;;;;5032521;28;20074;-71
2022/12/15 07:26:18;;;;;;;37.53;20.45;;;;;;;;;;5010795;28;20467;-71
2022/12/15 07:29:03;;;;;;;46.00;23.95;;;;;;;;;;5032974;28;20486;-72
2022/12/15 07:31:48;;;;;;;40.65;22.10;;;;;;;;;;5034724;28;20029;-70
2022/12/15 07:34:34;;;;;;;36.58;20.75;;;;;;;;;;5035382;28;20028;-70
2022/12/15 07:37:19;;;;;;;41.45;22.63;;;;;;;;;;5031852;28;20045;-70
2022/12/15 07:40:04;;;;;;;43.35;23.02;;;;;;;;;;5031059;28;20040;-73
2022/12/15 07:42:50;;;;;;;41.75;21.60;;;;;;;;;;5032095;28;20514;-72
2022/12/15 07:45:35;;;;;;;39.05;19.83;;;;;;;;;;5032802;28;20383;-71
2022/12/15 07:48:20;;;;;;;38.28;22.67;;;;;;;;;;5032964;28;20544;-70
2022/12/15 07:51:06;;;;;;;42.75;21.77;;;;;;;;;;5037730;28;20033;-75
2022/12/15 07:53:51;;;;;;;40.00;20.73;;;;;;;;;;5034645;28;20040;-75
2022/12/15 07:56:37;;;;;;;45.15;22.98;;;;;;;;;;5029396;28;20537;-73
2022/12/15 07:59:22;;;;;;;37.00;22.33;;;;;;;;;;5032941;28;20106;-75
2022/12/15 08:02:11;;;;;;;35.13;19.95;;;;;;;;;;5031661;28;20037;-77
2022/12/15 08:04:56;;;;;;;36.78;22.80;;;;;;;;;;5032538;28;20479;-76
2022/12/15 08:07:42;;;;;;;40.78;21.40;;;;;;;;;;5033698;28;20365;-76
2022/12/15 08:10:27;;;;;;;39.85;22.63;;;;;;;;;;5033773;28;20037;-76
2022/12/15 08:13:12;;;;;;;43.63;22.33;;;;;;;;;;5033448;28;20037;-76
2022/12/15 08:15:57;;;;;;;42.13;21.90;;;;;;;;;;5032995;28;20548;-76
2022/12/15 08:18:43;;;;;;;38.55;21.17;;;;;;;;;;5031074;28;20060;-75
2022/12/15 08:21:30;;;;;;;42.22;23.85;;;;;;;;;;5031517;28;20041;-74
2022/12/15 08:24:16;;;;;;;44.55;22.30;;;;;;;;;;5041067;28;20029;-71
2022/12/15 08:27:01;;;;;;;40.33;22.85;;;;;;;;;;5014665;28;20067;-70
2022/12/15 08:29:46;;;;;;;45.38;24.98;;;;;;;;;;5031793;28;20035;-70
2022/12/15 08:32:31;;;;;;;43.40;23.65;;;;;;;;;;5030180;28;20658;-70
2022/12/15 08:35:16;;;;;;;42.00;23.40;;;;;;;;;;5031600;28;20047;-71
2022/12/15 08:38:02;;;;;;;42.58;21.98;;;;;;;;;;5032040;28;20471;-70
2022/12/15 08:40:47;;;;;;;43.40;25.27;;;;;;;;;;5031556;28;20060;-70
2022/12/15 08:43:32;;;;;;;42.75;23.42;;;;;;;;;;5029414;28;20036;-73
2022/12/15 08:46:19;;;;;;;49.13;24.17;;;;;;;;;;5033539;23;20068;-78
2022/12/15 08:49:04;;;;;;;42.65;24.30;;;;;;;;;;5043380;28;20064;-77
2022/12/15 08:51:50;;;;;;;53.20;26.45;;;;;;;;;;5026632;28;20036;-80
2022/12/15 08:54:35;;;;;;;43.60;24.33;;;;;;;;;;5026783;28;20036;-84
2022/12/15 08:57:20;;;;;;;39.63;22.88;;;;;;;;;;5018278;28;20025;-79
2022/12/15 09:00:06;;;;;;;42.92;23.05;;;;;;;;;;5044492;28;20030;-82
2022/12/15 09:02:51;;;;;;;45.08;23.42;;;;;;;;;;5035003;28;20090;-75
2022/12/15 09:05:37;;;;;;;48.00;24.05;;;;;;;;;;5034346;28;20031;-81
2022/12/15 09:08:23;;;;;;;41.28;23.23;;;;;;;;;;5040138;28;20033;-80
2022/12/15 09:11:08;;;;;;;40.40;22.75;;;;;;;;;;5040139;28;20036;-74
2022/12/15 09:13:53;;;;;;;43.55;23.08;;;;;;;;;;5027497;28;20049;-74
2022/12/15 09:16:38;;;;;;;39.20;22.85;;;;;;;;;;5023321;28;20029;-77
2022/12/15 09:19:24;;;;;;;44.40;23.33;;;;;;;;;;5040895;28;20384;-75
2022/12/15 09:22:09;;;;;;;41.33;20.80;;;;;;;;;;5036385;28;20037;-81
2022/12/15 09:24:54;;;;;;;44.55;24.30;;;;;;;;;;5034514;28;20043;-75
2022/12/15 09:27:39;;;;;;;46.53;24.65;;;;;;;;;;5032890;28;20106;-80
2022/12/15 09:30:25;;;;;;;44.35;22.02;;;;;;;;;;5031161;28;20483;-80
2022/12/15 09:33:10;;;;;;;46.58;24.67;;;;;;;;;;5018750;28;20036;-78
2022/12/15 09:35:55;;;;;;;43.55;24.45;;;;;;;;;;5031957;28;20602;-80
2022/12/15 09:38:41;;;;;;;44.45;25.38;;;;;;;;;;5045805;28;20029;-80
2022/12/15 09:41:31;;;;;;;52.22;25.60;;;;;;;;;;5031434;28;20154;-76
2022/12/15 09:44:17;;;;;;;46.28;23.55;;;;;;;;;;5018243;28;20032;-76
2022/12/15 09:47:14;;;;;;;41.75;23.25;;;;;;;;;;5031710;28;20491;-75
2022/12/15 09:50:03;;;;;;;44.60;23.77;;;;;;;;;;5031912;28;20043;-74
2022/12/15 09:52:53;;;;;;;40.60;22.98;;;;;;;;;;5030126;28;20047;-79
2022/12/15 09:55:39;;;;;;;40.28;22.88;;;;;;;;;;5014777;28;20054;-80
2022/12/15 09:58:34;;;;;;;35.97;21.10;;;;;;;;;;5019078;28;20029;-83
2022/12/15 10:01:26;;;;;;;45.58;23.63;;;;;;;;;;5035918;28;20032;-74
2022/12/15 10:04:30;;;;;;;41.45;22.35;;;;;;;;;;5030491;28;20139;-78
2022/12/15 10:07:15;;;;;;;43.13;22.30;;;;;;;;;;5029206;28;20068;-78
2022/12/15 10:10:14;;;;;;;38.95;21.02;;;;;;;;;;5031196;28;20432;-74
2022/12/15 10:13:03;;;;;;;42.53;22.08;;;;;;;;;;5018472;28;20049;-72
2022/12/15 10:15:51;;;;;;;39.13;19.70;;;;;;;;;;5031249;28;20025;-74
2022/12/15 10:18:40;;;;;;;41.90;21.90;;;;;;;;;;5010726;28;20260;-73
2022/12/15 10:21:27;;;;;;;39.30;20.08;;;;;;;;;;5043528;28;20064;-72
2022/12/15 10:24:15;;;;;;;41.67;21.60;;;;;;;;;;5028683;28;20064;-75
2022/12/15 10:27:00;;;;;;;45.35;22.10;;;;;;;;;;5032084;28;20037;-76
2022/12/15 10:29:49;;;;;;;40.33;20.38;;;;;;;;;;5031432;28;20029;-76
2022/12/15 10:32:52;;;;;;;38.83;21.17;;;;;;;;;;5015615;28;20102;-77
2022/12/15 10:35:38;;;;;;;48.08;20.27;;;;;;;;;;5030411;28;20048;-79
2022/12/15 10:38:29;;;;;;;39.08;20.98;;;;;;;;;;5031532;28;20502;-78
2022/12/15 10:41:16;;;;;;;39.65;20.42;;;;;;;;;;5035464;28;20510;-78
2022/12/15 10:44:01;;;;;;;44.38;21.38;;;;;;;;;;5019909;28;20041;-76
2022/12/15 10:46:53;;;;;;;39.83;21.42;;;;;;;;;;5020669;28;20033;-75
2022/12/15 10:49:38;;;;;;;32.95;19.60;;;;;;;;;;5032193;28;20048;-76
2022/12/15 10:52:36;;;;;;;42.20;22.25;;;;;;;;;;5031598;28;20640;-73
2022/12/15 10:55:27;;;;;;;40.38;21.73;;;;;;;;;;5044820;28;20083;-72
2022/12/15 10:58:17;;;;;;;41.67;21.77;;;;;;;;;;5033454;28;20033;-74
2022/12/15 11:01:07;;;;;;;43.17;20.80;;;;;;;;;;5032071;28;20044;-72
2022/12/15 11:03:53;;;;;;;43.55;23.67;;;;;;;;;;5034497;28;20029;-73
2022/12/15 11:06:40;;;;;;;44.08;22.63;;;;;;;;;;5046501;28;20415;-72
2022/12/15 11:09:33;;;;;;;46.13;23.40;;;;;;;;;;5038585;28;20060;-81
2022/12/15 11:15:27;;;;;;;44.42;22.80;;;;;;;;;;5030085;28;20044;-76
2022/12/15 11:18:12;;;;;;;43.00;23.85;;;;;;;;;;5028522;28;20040;-76
2022/12/15 11:21:18;;;;;;;42.08;23.13;;;;;;;;;;5033619;28;20557;-77
2022/12/15 11:24:07;;;;;;;43.90;23.08;;;;;;;;;;5024780;28;20112;-77
2022/12/15 11:27:19;;;;;;;42.88;24.88;;;;;;;;;;5032153;28;20056;-79
2022/12/15 11:30:14;;;;;;;43.70;23.45;;;;;;;;;;5019044;28;20037;-75
2022/12/15 11:33:00;;;;;;;38.88;22.58;;;;;;;;;;5020161;28;20533;-76
2022/12/15 11:35:49;;;;;;;42.80;22.98;;;;;;;;;;5039655;28;20112;-74
2022/12/15 11:38:42;;;;;;;43.72;23.75;;;;;;;;;;5031418;28;20139;-75
2022/12/15 11:41:50;;;;;;;37.88;21.17;;;;;;;;;;5032367;28;20483;-75
2022/12/15 11:44:42;;;;;;;38.10;21.73;;;;;;;;;;5017143;28;20380;-73
2022/12/15 11:47:33;;;;;;;39.00;20.98;;;;;;;;;;5027967;28;20563;-79
2022/12/15 11:50:38;;;;;;;36.63;21.55;;;;;;;;;;5067841;22;20036;-74
2022/12/15 11:53:40;;;;;;;41.83;21.90;;;;;;;;;;5040003;28;20028;-72
2022/12/15 11:56:31;;;;;;;40.92;23.80;;;;;;;;;;5035393;28;20028;-73
2022/12/15 11:59:25;;;;;;;41.95;24.02;;;;;;;;;;5051143;28;20063;-72
2022/12/15 12:02:26;;;;;;;43.53;22.17;;;;;;;;;;5049592;28;20036;-71
2022/12/15 12:05:11;;;;;;;41.50;22.45;;;;;;;;;;5046616;28;20200;-72
2022/12/15 12:07:56;;;;;;;38.67;21.70;;;;;;;;;;5054274;28;20055;-83
2022/12/15 12:10:52;;;;;;;38.22;21.67;;;;;;;;;;5037423;28;20048;-81
2022/12/15 12:13:45;;;;;;;40.35;22.20;;;;;;;;;;5033722;28;20748;-80
2022/12/15 12:16:39;;;;;;;42.53;21.70;;;;;;;;;;5035266;28;20025;-84
2022/12/15 12:19:31;;;;;;;42.42;22.20;;;;;;;;;;5053210;28;20028;-82
2022/12/15 12:22:16;;;;;;;40.95;21.38;;;;;;;;;;5056569;28;20036;-79
2022/12/15 12:25:05;;;;;;;39.70;20.67;;;;;;;;;;5049302;28;20082;-77
2022/12/15 12:27:56;;;;;;;38.10;22.67;;;;;;;;;;5044212;28;20554;-73
2022/12/15 12:30:46;;;;;;;47.20;24.30;;;;;;;;;;5044237;28;20339;-72
2022/12/15 12:33:37;;;;;;;32.35;19.88;;;;;;;;;;5039530;28;20029;-73
2022/12/15 12:36:22;;;;;;;39.47;21.90;;;;;;;;;;5038805;28;20060;-71
2022/12/15 12:39:13;;;;;;;38.65;21.80;;;;;;;;;;5032643;28;20063;-72
2022/12/15 12:42:04;;;;;;;42.00;20.73;;;;;;;;;;5021737;28;20041;-78
2022/12/15 12:44:49;;;;;;;35.55;21.10;;;;;;;;;;5038946;28;20021;-80
2022/12/15 12:47:36;;;;;;;41.58;22.45;;;;;;;;;;5040052;28;20104;-86
2022/12/15 12:50:22;;;;;;;36.92;20.98;;;;;;;;;;5033117;28;20017;-80
2022/12/15 12:53:22;;;;;;;41.45;21.63;;;;;;;;;;5054204;28;20079;-83
2022/12/15 12:56:27;;;;;;;40.22;21.13;;;;;;;;;;5031374;28;20032;-82
2022/12/15 12:59:38;;;;;;;36.75;20.38;;;;;;;;;;5027719;28;20033;-77
2022/12/15 13:02:24;;;;;;;40.50;22.13;;;;;;;;;;5042639;28;20029;-78
2022/12/15 13:05:27;;;;;;;39.60;21.20;;;;;;;;;;5039672;28;20518;-71
2022/12/15 13:08:12;;;;;;;37.78;20.90;;;;;;;;;;5037064;28;20043;-72
2022/12/15 13:11:17;;;;;;;35.85;20.90;;;;;;;;;;5036152;28;20079;-73
2022/12/15 13:14:03;;;;;;;43.45;22.00;;;;;;;;;;5041604;28;20070;-76
2022/12/15 13:16:50;;;;;;;38.15;20.85;;;;;;;;;;5036655;28;20044;-73
2022/12/15 13:19:54;;;;;;;36.58;22.02;;;;;;;;;;5045284;28;20472;-84
2022/12/15 13:22:39;;;;;;;50.05;23.35;;;;;;;;;;5034149;28;20401;-75
2022/12/15 13:25:32;;;;;;;39.30;22.05;;;;;;;;;;5039966;28;20522;-81
2022/12/15 13:28:26;;;;;;;41.95;19.20;;;;;;;;;;5039201;28;20016;-75
2022/12/15 13:31:15;;;;;;;38.53;21.20;;;;;;;;;;5036911;28;20028;-79
2022/12/15 13:34:09;;;;;;;34.75;20.58;;;;;;;;;;5023269;28;20028;-76
2022/12/15 13:36:57;;;;;;;36.65;20.90;;;;;;;;;;5059488;28;20033;-73
2022/12/15 13:39:53;;;;;;;45.60;25.27;;;;;;;;;;5034816;28;20025;-75
2022/12/15 13:42:39;;;;;;;37.65;22.13;;;;;;;;;;5046320;28;20132;-72
2022/12/15 13:45:36;;;;;;;40.85;21.45;;;;;;;;;;5043730;28;20037;-73
2022/12/15 13:48:28;;;;;;;38.50;22.60;;;;;;;;;;5036502;28;20028;-72
2022/12/15 13:51:20;;;;;;;35.80;19.38;;;;;;;;;;5040253;28;20048;-73
2022/12/15 13:54:17;;;;;;;34.58;19.67;;;;;;;;;;5045578;28;20024;-75
2022/12/15 13:57:14;;;;;;;39.70;20.95;;;;;;;;;;5044721;28;20045;-74
2022/12/15 14:00:17;;;;;;;40.35;21.00;;;;;;;;;;5044792;28;20471;-75
2022/12/15 14:03:06;;;;;;;34.53;19.27;;;;;;;;;;5033961;28;20037;-72
2022/12/15 14:05:56;;;;;;;37.25;21.05;;;;;;;;;;5038115;28;20056;-72
2022/12/15 14:08:41;;;;;;;;;;;;;;;;;;5040510;28;20475;-73
2022/12/15 14:11:28;;;;;;;30.60;18.33;;;;;;;;;;5045339;28;19947;-77
2022/12/15 14:14:19;;;;;;;38.38;20.60;;;;;;;;;;5046926;28;20169;-71
2022/12/15 14:17:10;;;;;;;38.05;21.83;;;;;;;;;;5028998;28;20432;-80
2022/12/15 14:19:55;;;;;;;37.72;19.55;;;;;;;;;;5043133;28;20040;-86
2022/12/15 14:22:41;;;;;;;35.92;19.52;;;;;;;;;;5058446;28;20399;-80
2022/12/15 14:25:28;;;;;;;34.20;19.23;;;;;;;;;;5047528;28;20074;-80
2022/12/15 14:28:23;;;;;;;36.15;19.25;;;;;;;;;;5040687;28;20033;-80
2022/12/15 14:31:11;;;;;;;33.78;19.30;;;;;;;;;;5047054;28;20146;-81
2022/12/15 14:34:02;;;;;;;36.85;19.25;;;;;;;;;;5049452;28;20037;-73
2022/12/15 14:36:49;;;;;;;33.58;17.95;;;;;;;;;;5042238;28;20082;-72
2022/12/15 14:39:36;;;;;;;33.55;18.83;;;;;;;;;;5047343;28;20127;-71
2022/12/15 14:42:23;;;;;;;35.13;19.10;;;;;;;;;;5053279;28;20032;-74
2022/12/15 14:45:19;;;;;;;36.28;19.65;;;;;;;;;;5038020;28;20028;-72
2022/12/15 14:48:08;;;;;;;33.72;17.60;;;;;;;;;;5041953;28;20053;-72
2022/12/15 14:50:54;;;;;;;35.83;20.50;;;;;;;;;;5041015;28;20067;-70
2022/12/15 14:53:40;;;;;;;35.53;18.02;;;;;;;;;;5044489;28;20029;-73
2022/12/15 14:56:29;;;;;;;32.60;17.80;;;;;;;;;;5046657;28;20021;-74
2022/12/15 14:59:18;;;;;;;38.40;19.20;;;;;;;;;;5042542;28;20075;-74
2022/12/15 15:02:11;;;;;;;37.33;18.83;;;;;;;;;;5041445;28;20037;-73
2022/12/15 15:05:03;;;;;;;35.13;19.33;;;;;;;;;;5046110;28;20036;-75
2022/12/15 15:07:54;;;;;;;37.30;20.08;;;;;;;;;;5030804;28;20387;-73
2022/12/15 15:10:40;;;;;;;36.03;19.00;;;;;;;;;;5046372;28;20069;-71
2022/12/15 15:13:29;;;;;;;33.70;19.13;;;;;;;;;;5035402;28;20032;-74
2022/12/15 15:16:16;;;;;;;36.50;19.13;;;;;;;;;;5054590;28;20112;-73
2022/12/15 15:19:03;;;;;;;34.90;20.00;;;;;;;;;;5031745;28;20041;-72
2022/12/15 15:21:48;;;;;;;35.97;19.17;;;;;;;;;;5036500;28;20098;-73
2022/12/15 15:24:35;;;;;;;41.38;20.08;;;;;;;;;;5049658;28;20120;-73
2022/12/15 15:27:40;;;;;;;33.88;19.10;;;;;;;;;;5039078;28;20056;-79
2022/12/15 15:30:26;;;;;;;36.90;19.95;;;;;;;;;;5031559;28;20112;-79
2022/12/15 15:33:12;;;;;;;35.97;18.85;;;;;;;;;;5042744;28;20333;-77
2022/12/15 15:35:59;;;;;;;38.53;20.25;;;;;;;;;;5045443;28;20118;-76
2022/12/15 15:38:47;;;;;;;40.35;18.48;;;;;;;;;;5032432;28;20375;-78
2022/12/15 15:41:33;;;;;;;36.22;17.90;;;;;;;;;;5025199;28;20361;-76
2022/12/15 15:44:18;;;;;;;33.42;18.35;;;;;;;;;;5043397;28;20043;-78
2022/12/15 15:47:03;;;;;;;36.45;19.08;;;;;;;;;;5031027;28;20040;-77
2022/12/15 15:49:49;;;;;;;36.47;18.98;;;;;;;;;;5038231;28;20112;-77
2022/12/15 15:52:35;;;;;;;34.33;19.10;;;;;;;;;;5034509;28;20388;-81
2022/12/15 15:55:24;;;;;;;36.70;18.27;;;;;;;;;;5043926;28;20037;-77
2022/12/15 15:58:10;;;;;;;37.15;19.75;;;;;;;;;;5033268;28;20040;-65
2022/12/15 16:00:55;;;;;;;34.78;18.20;;;;;;;;;;5041781;28;20048;-77
2022/12/15 16:03:41;;;;;;;34.45;19.02;;;;;;;;;;5040750;28;20039;-77
2022/12/15 16:06:26;;;;;;;35.60;19.73;;;;;;;;;;5031779;28;20109;-82
2022/12/15 16:09:13;;;;;;;31.88;17.88;;;;;;;;;;5029816;28;20025;-74
2022/12/15 16:11:59;;;;;;;31.58;17.73;;;;;;;;;;5023772;28;20036;-73
2022/12/15 16:14:44;;;;;;;30.40;17.77;;;;;;;;;;5049379;28;20149;-74
2022/12/15 16:17:30;;;;;;;34.25;17.95;;;;;;;;;;5049975;28;20509;-75
2022/12/15 16:20:16;;;;;;;34.53;17.48;;;;;;;;;;5029039;28;20066;-73
2022/12/15 16:23:04;;;;;;;30.55;16.05;;;;;;;;;;5048503;28;20536;-72
2022/12/15 16:25:56;;;;;;;34.35;17.45;;;;;;;;;;5039592;28;20033;-75
2022/12/15 16:28:42;;;;;;;32.35;17.75;;;;;;;;;;5048613;28;20033;-75
2022/12/15 16:31:36;;;;;;;27.48;17.25;;;;;;;;;;5035022;28;20036;-77
2022/12/15 16:34:23;;;;;;;30.05;17.10;;;;;;;;;;5025098;28;20064;-76
2022/12/15 16:37:25;;;;;;;32.00;18.10;;;;;;;;;;5027337;28;20064;-76
2022/12/15 16:40:25;;;;;;;32.42;17.27;;;;;;;;;;5057680;28;20467;-65
2022/12/15 16:43:15;;;;;;;32.47;16.73;;;;;;;;;;5046234;28;20036;-76
2022/12/15 16:46:00;;;;;;;29.17;16.25;;;;;;;;;;5034533;28;20044;-77
2022/12/15 16:48:45;;;;;;;32.05;16.48;;;;;;;;;;5039947;28;20415;-76
2022/12/15 16:51:33;;;;;;;27.65;15.75;;;;;;;;;;5046897;28;20043;-77
2022/12/15 16:54:21;;;;;;;29.33;13.73;;;;;;;;;;5041299;28;20037;-80
2022/12/15 16:57:10;;;;;;;31.98;17.25;;;;;;;;;;5029138;28;20032;-82
2022/12/15 16:59:55;;;;;;;27.67;16.05;;;;;;;;;;5029483;28;20086;-75
2022/12/15 17:02:40;;;;;;;28.63;15.48;;;;;;;;;;5038306;28;20044;-77
2022/12/15 17:05:33;;;;;;;28.63;16.60;;;;;;;;;;5024687;28;20039;-77
2022/12/15 17:08:31;;;;;;;26.45;14.32;;;;;;;;;;5046166;28;20020;-75
2022/12/15 17:11:18;;;;;;;30.52;15.80;;;;;;;;;;5043379;28;20098;-75
2022/12/15 17:14:04;;;;;;;27.40;15.35;;;;;;;;;;5031049;28;20025;-74
2022/12/15 17:16:49;;;;;;;27.33;15.25;;;;;;;;;;5045956;28;20399;-77
2022/12/15 17:19:34;;;;;;;28.38;16.40;;;;;;;;;;5041511;28;20033;-78
2022/12/15 17:22:20;;;;;;;25.80;15.32;;;;;;;;;;5039986;28;20043;-74
2022/12/15 17:25:11;;;;;;;26.85;15.68;;;;;;;;;;5027685;28;20045;-74
2022/12/15 17:27:56;;;;;;;29.88;15.80;;;;;;;;;;5026816;28;20036;-72
2022/12/15 17:30:42;;;;;;;25.60;14.82;;;;;;;;;;5028320;28;20033;-72
2022/12/15 17:33:28;;;;;;;25.20;15.68;;;;;;;;;;5031138;28;20051;-73
2022/12/15 17:36:24;;;;;;;30.50;17.05;;;;;;;;;;5038179;28;20041;-72
2022/12/15 17:39:10;;;;;;;28.35;15.23;;;;;;;;;;5039953;28;20063;-70
2022/12/15 17:41:56;;;;;;;24.15;13.63;;;;;;;;;;5027717;28;20044;-71
2022/12/15 17:44:45;;;;;;;29.02;15.90;;;;;;;;;;5040245;28;20120;-69
2022/12/15 17:47:30;;;;;;;25.80;14.98;;;;;;;;;;5038993;28;20103;-69
2022/12/15 17:50:16;;;;;;;26.90;14.65;;;;;;;;;;5048359;28;20107;-68
2022/12/15 17:53:02;;;;;;;29.40;16.20;;;;;;;;;;5042140;28;20028;-70
2022/12/15 17:55:50;;;;;;;29.92;15.00;;;;;;;;;;5039279;28;20024;-75
2022/12/15 17:58:54;;;;;;;28.42;14.55;;;;;;;;;;5038860;28;20036;-74
2022/12/15 18:01:41;;;;;;;26.65;14.52;;;;;;;;;;5026325;28;20354;-73
2022/12/15 18:04:27;;;;;;;28.10;14.95;;;;;;;;;;5027431;28;20068;-74
2022/12/15 18:07:14;;;;;;;26.80;16.30;;;;;;;;;;5032502;28;20530;-79
2022/12/15 18:09:59;;;;;;;27.33;15.63;;;;;;;;;;5037547;28;20033;-79
2022/12/15 18:12:45;;;;;;;29.98;15.55;;;;;;;;;;5038404;28;20478;-76
2022/12/15 18:15:31;;;;;;;31.45;18.13;;;;;;;;;;5028460;28;20052;-75
2022/12/15 18:18:17;;;;;;;31.10;15.82;;;;;;;;;;5026961;28;20036;-80
2022/12/15 18:21:10;;;;;;;28.60;15.73;;;;;;;;;;5048771;28;20378;-77
2022/12/15 18:23:55;;;;;;;27.75;15.02;;;;;;;;;;5025302;28;20033;-78
2022/12/15 18:26:40;;;;;;;30.00;16.73;;;;;;;;;;5039956;28;20039;-77
2022/12/15 18:29:25;;;;;;;29.90;16.27;;;;;;;;;;5033821;28;20489;-76
2022/12/15 18:32:11;;;;;;;28.25;15.45;;;;;;;;;;5028582;28;20040;-79
2022/12/15 18:34:56;;;;;;;30.17;15.70;;;;;;;;;;5024140;28;20051;-75
2022/12/15 18:37:42;;;;;;;27.73;15.13;;;;;;;;;;5038117;28;20069;-73
2022/12/15 18:40:28;;;;;;;31.20;16.70;;;;;;;;;;5044034;28;20045;-76
2022/12/15 18:43:15;;;;;;;28.92;15.73;;;;;;;;;;5030203;28;20043;-76
2022/12/15 18:46:00;;;;;;;31.60;15.30;;;;;;;;;;5046238;28;20058;-74
2022/12/15 18:48:45;;;;;;;26.90;15.63;;;;;;;;;;5038870;28;20028;-74
2022/12/15 18:51:31;;;;;;;29.40;16.70;;;;;;;;;;5041961;28;20090;-75